createdAt,value
2022-10-18T00:02:04.288Z,102782.25
2022-10-18T00:04:30.987Z,102778.78
2022-10-18T00:06:57.760Z,102775.34
2022-10-18T00:09:24.846Z,102771.06
2022-10-18T00:11:51.632Z,102772.75
2022-10-18T00:14:17.993Z,102769.34
2022-10-18T00:16:44.394Z,102776.22
2022-10-18T00:19:11.163Z,102780.50
2022-10-18T00:21:37.555Z,102773.63
2022-10-18T00:24:04.386Z,102764.19
2022-10-18T00:26:31.380Z,102768.47
2022-10-18T00:29:00.777Z,102774.47
2022-10-18T00:31:31.198Z,102772.75
2022-10-18T00:34:00.632Z,102775.31
2022-10-18T00:36:29.050Z,102774.47
2022-10-18T00:38:55.672Z,102777.03
2022-10-18T00:41:28.806Z,102777.03
2022-10-18T00:43:59.721Z,102780.50
2022-10-18T00:46:29.029Z,102783.91
2022-10-18T00:48:57.670Z,102783.94
2022-10-18T00:51:28.662Z,102789.94
2022-10-18T00:53:55.206Z,102788.25
2022-10-18T00:56:21.868Z,102789.97
2022-10-18T00:58:49.325Z,102789.13
2022-10-18T01:01:15.886Z,102782.28
2022-10-18T01:03:42.641Z,102795.97
2022-10-18T01:06:09.122Z,102801.13
2022-10-18T01:08:45.569Z,102795.97
2022-10-18T01:11:26.630Z,102795.13
2022-10-18T01:14:08.211Z,102797.69
2022-10-18T01:16:42.489Z,102793.41
2022-10-18T01:20:00.038Z,102791.75
2022-10-18T01:22:52.909Z,102791.81
2022-10-18T01:25:19.274Z,102789.28
2022-10-18T01:28:04.304Z,102803.06
2022-10-18T01:30:47.256Z,102803.06
2022-10-18T01:33:17.458Z,102812.47
2022-10-18T01:35:50.336Z,102814.16
2022-10-18T01:38:19.876Z,102820.19
2022-10-18T01:40:49.492Z,102815.84
2022-10-18T01:43:17.253Z,102814.16
2022-10-18T01:45:43.691Z,102811.59
2022-10-18T01:48:11.997Z,102814.16
2022-10-18T01:50:38.378Z,102816.69
2022-10-18T01:53:04.725Z,102802.13
2022-10-18T01:55:49.481Z,102793.59
2022-10-18T01:58:15.964Z,102797.88
2022-10-18T02:00:42.660Z,102797.88
2022-10-18T02:03:23.286Z,102804.75
2022-10-18T02:06:14.124Z,102806.47
2022-10-18T02:08:53.206Z,102804.81
2022-10-18T02:11:19.603Z,102806.53
2022-10-18T02:13:50.563Z,102804.84
2022-10-18T02:16:21.433Z,102806.59
2022-10-18T02:18:57.434Z,102804.03
2022-10-18T02:21:25.823Z,102815.19
2022-10-18T02:23:52.766Z,102802.34
2022-10-18T02:26:19.309Z,102808.31
2022-10-18T02:28:45.899Z,102810.03
2022-10-18T02:31:37.445Z,102810.91
2022-10-18T02:34:32.041Z,102811.81
2022-10-18T02:37:00.969Z,102810.09
2022-10-18T02:39:31.986Z,102811.00
2022-10-18T02:41:59.431Z,102818.69
2022-10-18T02:44:26.148Z,102813.59
2022-10-18T02:46:53.307Z,102807.59
2022-10-18T02:49:19.734Z,102810.19
2022-10-18T02:51:46.102Z,102812.81
2022-10-18T02:54:12.483Z,102817.09
2022-10-18T02:56:38.818Z,102819.66
2022-10-18T02:59:07.265Z,102817.97
2022-10-18T03:01:36.073Z,102812.00
2022-10-18T03:04:03.489Z,102801.75
2022-10-18T03:06:29.826Z,102800.03
2022-10-18T03:08:56.369Z,102805.19
2022-10-18T03:11:22.774Z,102806.06
2022-10-18T03:13:50.934Z,102805.25
2022-10-18T03:16:17.754Z,102817.25
2022-10-18T03:18:44.459Z,102813.88
2022-10-18T03:21:11.065Z,102813.03
2022-10-18T03:23:37.519Z,102807.91
2022-10-18T03:26:04.324Z,102813.06
2022-10-18T03:28:32.043Z,102808.78
2022-10-18T03:31:03.016Z,102815.63
2022-10-18T03:33:30.381Z,102814.78
2022-10-18T03:35:56.722Z,102814.78
2022-10-18T03:38:23.418Z,102813.97
2022-10-18T03:40:49.832Z,102810.53
2022-10-18T03:43:16.226Z,102818.22
2022-10-18T03:45:42.629Z,102819.06
2022-10-18T03:48:09.238Z,102810.53
2022-10-18T03:50:35.708Z,102816.53
2022-10-18T03:53:02.055Z,102813.94
2022-10-18T03:55:28.488Z,102819.97
2022-10-18T03:57:55.013Z,102821.69
2022-10-18T04:00:21.386Z,102808.84
2022-10-18T04:02:50.796Z,102808.88
2022-10-18T04:05:19.931Z,102803.72
2022-10-18T04:07:46.501Z,102800.31
2022-10-18T04:10:12.918Z,102807.19
2022-10-18T04:12:39.241Z,102814.03
2022-10-18T04:15:06.257Z,102805.50
2022-10-18T04:17:32.854Z,102807.22
2022-10-18T04:19:59.399Z,102805.50
2022-10-18T04:22:25.764Z,102817.50
2022-10-18T04:24:53.302Z,102818.34
2022-10-18T04:27:19.955Z,102813.22
2022-10-18T04:29:46.500Z,102812.34
2022-10-18T04:32:12.841Z,102806.38
2022-10-18T04:34:39.263Z,102816.63
2022-10-18T04:37:05.667Z,102806.38
2022-10-18T04:39:32.341Z,102808.09
2022-10-18T04:41:58.672Z,102813.25
2022-10-18T04:44:24.990Z,102811.53
2022-10-18T04:46:51.383Z,102814.94
2022-10-18T04:49:17.859Z,102812.34
2022-10-18T04:51:44.221Z,102805.53
2022-10-18T04:54:10.588Z,102816.66
2022-10-18T04:56:36.963Z,102817.50
2022-10-18T04:59:03.448Z,102816.63
2022-10-18T05:01:30.266Z,102814.06
2022-10-18T05:03:56.610Z,102826.88
2022-10-18T05:06:23.173Z,102819.22
2022-10-18T05:08:49.825Z,102817.50
2022-10-18T05:11:16.189Z,102820.91
2022-10-18T05:13:44.954Z,102824.34
2022-10-18T05:16:13.627Z,102827.72
2022-10-18T05:18:39.989Z,102833.72
2022-10-18T05:21:06.340Z,102828.59
2022-10-18T05:23:32.700Z,102835.41
2022-10-18T05:26:05.092Z,102834.56
2022-10-18T05:28:41.130Z,102834.53
2022-10-18T05:31:10.434Z,102843.13
2022-10-18T05:33:36.866Z,102850.78
2022-10-18T05:36:03.867Z,102847.38
2022-10-18T05:38:31.073Z,102847.38
2022-10-18T05:40:58.197Z,102847.38
2022-10-18T05:43:27.782Z,102843.09
2022-10-18T05:45:54.332Z,102862.75
2022-10-18T05:48:20.873Z,102857.63
2022-10-18T05:50:47.222Z,102860.19
2022-10-18T05:53:35.129Z,102863.63
2022-10-18T05:56:01.417Z,102857.63
2022-10-18T05:58:27.903Z,102863.59
2022-10-18T06:00:54.238Z,102865.31
2022-10-18T06:03:20.597Z,102873.00
2022-10-18T06:05:46.998Z,102889.25
2022-10-18T06:08:13.640Z,102890.09
2022-10-18T06:10:40.361Z,102896.09
2022-10-18T06:13:06.745Z,102889.25
2022-10-18T06:15:33.163Z,102883.25
2022-10-18T06:17:59.559Z,102896.06
2022-10-18T06:20:25.959Z,102914.03
2022-10-18T06:22:53.478Z,102910.63
2022-10-18T06:25:19.886Z,102900.34
2022-10-18T06:27:46.565Z,102896.94
2022-10-18T06:30:12.978Z,102914.84
2022-10-18T06:32:39.322Z,102917.41
2022-10-18T06:35:06.270Z,102915.69
2022-10-18T06:37:33.017Z,102917.41
2022-10-18T06:39:59.750Z,102919.97
2022-10-18T06:42:26.234Z,102923.38
2022-10-18T06:44:52.595Z,102930.19
2022-10-18T06:47:19.014Z,102936.19
2022-10-18T06:49:45.379Z,102938.72
2022-10-18T06:52:11.762Z,102943.00
2022-10-18T06:54:38.138Z,102941.28
2022-10-18T06:57:04.577Z,102942.16
2022-10-18T06:59:31.590Z,102953.25
2022-10-18T07:01:58.192Z,102948.13
2022-10-18T07:04:27.649Z,102954.13
2022-10-18T07:06:54.205Z,102955.84
2022-10-18T07:09:20.806Z,102953.28
2022-10-18T07:11:47.239Z,102964.41
2022-10-18T07:14:16.308Z,102965.28
2022-10-18T07:16:43.024Z,102970.41
2022-10-18T07:19:09.408Z,102967.84
2022-10-18T07:21:36.378Z,102967.88
2022-10-18T07:24:02.820Z,102974.72
2022-10-18T07:26:31.600Z,102975.59
2022-10-18T07:29:10.509Z,102968.78
2022-10-18T07:31:38.656Z,102979.03
2022-10-18T07:34:05.734Z,102980.78
2022-10-18T07:36:32.155Z,102986.78
2022-10-18T07:38:59.632Z,102997.06
2022-10-18T07:41:26.134Z,102996.22
2022-10-18T07:43:53.197Z,102991.94
2022-10-18T07:46:21.376Z,102994.53
2022-10-18T07:48:48.031Z,102986.81
2022-10-18T07:51:14.686Z,102986.81
2022-10-18T07:53:41.183Z,102992.78
2022-10-18T07:56:21.347Z,103004.81
2022-10-18T07:58:53.759Z,103004.78
2022-10-18T08:01:21.902Z,103009.06
2022-10-18T08:03:48.773Z,103008.19
2022-10-18T08:06:18.329Z,103005.59
2022-10-18T08:08:45.544Z,103015.00
2022-10-18T08:11:17.137Z,103008.97
2022-10-18T08:13:43.958Z,103017.50
2022-10-18T08:16:17.040Z,103020.91
2022-10-18T08:18:43.572Z,103020.03
2022-10-18T08:21:11.758Z,103019.16
2022-10-18T08:23:38.499Z,103018.25
2022-10-18T08:26:10.893Z,103015.63
2022-10-18T08:28:37.569Z,103019.88
2022-10-18T08:31:10.913Z,103024.13
2022-10-18T08:33:39.163Z,103034.38
2022-10-18T08:36:08.171Z,103024.03
2022-10-18T08:38:36.266Z,103021.41
2022-10-18T08:41:14.167Z,103018.81
2022-10-18T08:43:46.144Z,103025.59
2022-10-18T08:46:13.342Z,103016.97
2022-10-18T08:48:44.556Z,103022.88
2022-10-18T08:51:24.566Z,103021.09
2022-10-18T08:54:04.627Z,103021.03
2022-10-18T08:56:33.418Z,103018.38
2022-10-18T08:59:03.770Z,103019.13
2022-10-18T09:01:51.839Z,103010.41
2022-10-18T09:04:28.764Z,103008.63
2022-10-18T09:07:23.459Z,103011.97
2022-10-18T09:10:01.832Z,103018.72
2022-10-18T09:12:39.334Z,103025.47
2022-10-18T09:15:08.559Z,103033.97
2022-10-18T09:17:58.582Z,103039.94
2022-10-18T09:20:35.123Z,103027.84
2022-10-18T09:23:23.018Z,103020.81
2022-10-18T09:25:56.260Z,103026.69
2022-10-18T09:28:35.402Z,103043.75
2022-10-18T09:31:11.375Z,103047.06
2022-10-18T09:33:46.571Z,103040.06
2022-10-18T09:36:20.662Z,103043.34
2022-10-18T09:38:51.396Z,103052.75
2022-10-18T09:41:45.378Z,103044.84
2022-10-18T09:44:33.244Z,103043.78
2022-10-18T09:47:16.562Z,103040.13
2022-10-18T09:49:49.773Z,103050.31
2022-10-18T09:52:24.343Z,103052.63
2022-10-18T09:55:04.175Z,103045.56
2022-10-18T09:57:43.681Z,103056.56
2022-10-18T10:00:25.796Z,103052.88
2022-10-18T10:02:52.451Z,103055.38
2022-10-18T10:05:19.790Z,103049.19
2022-10-18T10:07:48.213Z,103056.91
2022-10-18T10:10:23.290Z,103049.88
2022-10-18T10:13:04.358Z,103054.19
2022-10-18T10:15:35.369Z,103061.75
2022-10-18T10:18:34.572Z,103053.81
2022-10-18T10:21:05.579Z,103060.56
2022-10-18T10:23:35.580Z,103068.09
2022-10-18T10:26:06.530Z,103061.84
2022-10-18T10:28:46.137Z,103063.44
2022-10-18T10:31:18.610Z,103070.22
2022-10-18T10:33:47.527Z,103064.13
2022-10-18T10:36:19.742Z,103068.16
2022-10-18T10:39:01.717Z,103077.56
2022-10-18T10:41:28.468Z,103079.19
2022-10-18T10:43:55.171Z,103079.16
2022-10-18T10:46:23.141Z,103069.56
2022-10-18T10:48:52.159Z,103073.53
2022-10-18T10:51:38.964Z,103082.16
2022-10-18T10:54:11.394Z,103082.97
2022-10-18T10:56:59.929Z,103085.41
2022-10-18T10:59:30.514Z,103084.41
2022-10-18T11:02:21.250Z,103084.13
2022-10-18T11:04:50.061Z,103087.81
2022-10-18T11:07:27.749Z,103088.47
2022-10-18T11:10:09.265Z,103085.59
2022-10-18T11:12:38.585Z,103087.13
2022-10-18T11:15:13.913Z,103093.09
2022-10-18T11:17:56.856Z,103085.94
2022-10-18T11:20:40.198Z,103085.75
2022-10-18T11:23:10.740Z,103083.78
2022-10-18T11:25:49.263Z,103083.09
2022-10-18T11:28:40.258Z,103082.72
2022-10-18T11:31:11.390Z,103073.22
2022-10-18T11:34:09.871Z,103079.13
2022-10-18T11:36:56.132Z,103076.38
2022-10-18T11:39:53.341Z,103083.81
2022-10-18T11:42:41.769Z,103079.59
2022-10-18T11:45:37.032Z,103075.19
2022-10-18T11:48:37.576Z,103087.75
2022-10-18T11:51:34.328Z,103087.28
2022-10-18T11:54:29.819Z,103086.00
2022-10-18T11:57:14.638Z,103073.56
2022-10-18T11:59:55.043Z,103082.78
2022-10-18T12:02:42.728Z,103079.63
2022-10-18T12:05:23.149Z,103072.13
2022-10-18T12:08:02.862Z,103068.72
2022-10-18T12:10:44.406Z,103071.91
2022-10-18T12:13:30.320Z,103070.13
2022-10-18T12:15:57.424Z,103071.19
2022-10-18T12:18:26.285Z,103074.72
2022-10-18T12:20:57.932Z,103064.13
2022-10-18T12:23:42.194Z,103063.75
2022-10-18T12:26:11.124Z,103059.22
2022-10-18T12:28:41.416Z,103060.03
2022-10-18T12:31:36.858Z,103065.25
2022-10-18T12:34:17.181Z,103060.22
2022-10-18T12:40:09.780Z,103062.88
2022-10-18T12:42:45.255Z,103061.81
2022-10-18T12:45:22.338Z,103058.91
2022-10-18T12:47:49.082Z,103056.84
2022-10-18T12:50:38.142Z,103062.28
2022-10-18T12:53:28.437Z,103062.66
2022-10-18T12:55:55.740Z,103059.03
2022-10-18T12:58:29.054Z,103061.03
2022-10-18T13:00:58.648Z,103050.31
2022-10-18T13:03:24.930Z,103053.34
2022-10-18T13:05:53.963Z,103052.28
2022-10-18T13:08:27.733Z,103052.34
2022-10-18T13:11:12.274Z,103044.75
2022-10-18T13:14:06.697Z,103038.53
2022-10-18T13:16:39.251Z,103030.84
2022-10-18T13:19:18.495Z,103026.53
2022-10-18T13:22:15.216Z,103021.97
2022-10-18T13:25:01.639Z,103022.53
2022-10-18T13:27:37.218Z,103024.91
2022-10-18T13:30:41.919Z,103014.84
2022-10-18T13:33:28.984Z,103019.13
2022-10-18T13:35:59.349Z,103023.78
2022-10-18T13:38:40.386Z,103028.72
2022-10-18T13:41:16.646Z,103034.94
2022-10-18T13:43:52.665Z,103035.09
2022-10-18T13:46:34.104Z,103028.63
2022-10-18T13:49:24.752Z,103037.34
2022-10-18T13:51:57.172Z,103025.91
2022-10-18T13:54:48.668Z,103041.00
2022-10-18T13:57:24.618Z,103036.81
2022-10-18T14:00:18.862Z,103031.09
2022-10-18T14:03:26.850Z,103041.00
2022-10-18T14:06:10.775Z,103046.81
2022-10-18T14:08:42.594Z,103038.97
2022-10-18T14:11:29.969Z,103038.56
2022-10-18T14:14:16.527Z,103040.38
2022-10-18T14:17:07.271Z,103049.63
2022-10-18T14:19:36.230Z,103044.72
2022-10-18T14:22:24.896Z,103046.44
2022-10-18T14:24:54.480Z,103059.00
2022-10-18T14:27:21.966Z,103052.59
2022-10-18T14:29:50.026Z,103055.53
2022-10-18T14:32:22.169Z,103061.06
2022-10-18T14:34:48.658Z,103066.47
2022-10-18T14:37:27.158Z,103058.19
2022-10-18T14:39:54.041Z,103053.25
2022-10-18T14:42:23.673Z,103064.75
2022-10-18T14:44:54.261Z,103058.88
2022-10-18T14:47:27.742Z,103063.38
2022-10-18T14:49:54.837Z,103072.28
2022-10-18T14:52:35.808Z,103065.66
2022-10-18T14:55:02.716Z,103065.91
2022-10-18T14:57:36.293Z,103062.69
2022-10-18T15:00:08.380Z,103064.59
2022-10-18T15:02:38.513Z,103078.69
2022-10-18T15:05:19.267Z,103076.22
2022-10-18T15:07:47.337Z,103071.38
2022-10-18T15:10:27.251Z,103069.84
2022-10-18T15:13:10.813Z,103072.59
2022-10-18T15:15:38.517Z,103070.94
2022-10-18T15:18:06.634Z,103072.72
2022-10-18T15:20:39.241Z,103072.00
2022-10-18T15:23:27.856Z,103072.13
2022-10-18T15:26:02.988Z,103066.19
2022-10-18T15:28:32.841Z,103070.63
2022-10-18T15:31:01.634Z,103070.78
2022-10-18T15:33:34.288Z,103069.91
2022-10-18T15:36:11.703Z,103066.44
2022-10-18T15:38:38.643Z,103064.84
2022-10-18T15:41:56.197Z,103072.34
2022-10-18T15:44:34.756Z,103075.38
2022-10-18T15:47:13.213Z,103079.00
2022-10-18T15:49:46.104Z,103074.91
2022-10-18T15:52:21.589Z,103084.53
2022-10-18T15:57:19.933Z,103089.97
2022-10-18T16:00:05.599Z,103085.03
2022-10-18T16:02:31.962Z,103080.84
2022-10-18T16:05:02.655Z,103086.97
2022-10-18T16:07:29.571Z,103086.19
2022-10-18T16:09:55.938Z,103088.03
2022-10-18T16:12:22.282Z,103083.84
2022-10-18T16:14:48.648Z,103092.50
2022-10-18T16:17:17.046Z,103086.56
2022-10-18T16:19:44.330Z,103093.53
2022-10-18T16:24:40.519Z,103097.94
2022-10-18T16:27:07.124Z,103095.47
2022-10-18T16:29:33.633Z,103099.88
2022-10-18T16:32:01.088Z,103100.84
2022-10-18T16:34:27.561Z,103098.38
2022-10-18T16:36:54.865Z,103100.22
2022-10-18T16:39:22.777Z,103105.44
2022-10-18T16:41:49.783Z,103101.22
2022-10-18T16:44:17.085Z,103103.00
2022-10-18T16:46:43.608Z,103104.78
2022-10-18T16:49:29.801Z,103108.34
2022-10-18T16:51:56.161Z,103111.00
2022-10-18T16:54:23.575Z,103113.72
2022-10-18T16:56:50.503Z,103117.25
2022-10-18T16:59:31.472Z,103116.47
2022-10-18T17:01:58.125Z,103124.28
2022-10-18T17:04:24.599Z,103134.63
2022-10-18T17:06:52.534Z,103135.53
2022-10-18T17:09:18.880Z,103137.31
2022-10-18T17:11:45.220Z,103142.47
2022-10-18T17:14:11.589Z,103139.06
2022-10-18T17:16:38.911Z,103141.66
2022-10-18T17:19:07.664Z,103139.09
2022-10-18T17:21:34.289Z,103139.97
2022-10-18T17:24:05.929Z,103146.00
2022-10-18T17:26:33.462Z,103158.88
2022-10-18T17:29:03.251Z,103156.31
2022-10-18T17:31:31.607Z,103159.75
2022-10-18T17:34:01.322Z,103164.06
2022-10-18T17:36:28.492Z,103164.91
2022-10-18T17:38:55.591Z,103161.50
2022-10-18T17:41:22.282Z,103161.50
2022-10-18T17:43:49.071Z,103158.06
2022-10-18T17:46:15.854Z,103164.91
2022-10-18T17:48:42.718Z,103159.75
2022-10-18T17:51:11.012Z,103159.75
2022-10-18T17:53:37.557Z,103152.06
2022-10-18T17:56:04.396Z,103164.88
2022-10-18T17:58:31.739Z,103164.78
2022-10-18T18:01:08.611Z,103170.78
2022-10-18T18:03:34.982Z,103173.31
2022-10-18T18:06:10.722Z,103181.84
2022-10-18T18:08:37.114Z,103179.25
2022-10-18T18:11:03.442Z,103195.44
2022-10-18T18:13:29.823Z,103189.41
2022-10-18T18:15:56.161Z,103186.81
2022-10-18T18:18:22.672Z,103186.78
2022-10-18T18:20:55.356Z,103189.34
2022-10-18T18:23:21.837Z,103189.34
2022-10-18T18:25:57.521Z,103194.47
2022-10-18T18:28:24.122Z,103187.63
2022-10-18T18:30:50.481Z,103190.13
2022-10-18T18:33:16.867Z,103191.78
2022-10-18T18:35:43.285Z,103186.59
2022-10-18T18:38:09.669Z,103195.13
2022-10-18T18:40:35.997Z,103193.31
2022-10-18T18:43:18.932Z,103190.69
2022-10-18T18:45:52.101Z,103197.47
2022-10-18T18:48:19.910Z,103195.72
2022-10-18T18:50:50.442Z,103211.03
2022-10-18T18:53:16.820Z,103207.56
2022-10-18T18:55:43.263Z,103213.50
2022-10-18T18:58:11.191Z,103216.00
2022-10-18T19:00:44.275Z,103209.09
2022-10-18T19:03:15.387Z,103212.47
2022-10-18T19:05:41.799Z,103214.13
2022-10-18T19:08:08.814Z,103207.25
2022-10-18T19:10:35.186Z,103218.31
2022-10-18T19:13:01.521Z,103211.41
2022-10-18T19:15:27.949Z,103209.72
2022-10-18T19:17:55.528Z,103213.94
2022-10-18T19:20:21.986Z,103213.84
2022-10-18T19:22:48.403Z,103214.66
2022-10-18T19:25:14.903Z,103218.91
2022-10-18T19:27:41.251Z,103213.63
2022-10-18T19:30:11.058Z,103209.31
2022-10-18T19:32:37.402Z,103209.28
2022-10-18T19:35:03.998Z,103216.91
2022-10-18T19:37:30.686Z,103215.13
2022-10-18T19:39:58.478Z,103213.31
2022-10-18T19:42:28.960Z,103215.91
2022-10-18T19:44:57.723Z,103208.13
2022-10-18T19:47:24.050Z,103207.25
2022-10-18T19:49:51.757Z,103211.50
2022-10-18T19:52:18.228Z,103207.19
2022-10-18T19:54:45.067Z,103207.13
2022-10-18T19:57:11.635Z,103202.75
2022-10-18T19:59:38.437Z,103201.03
2022-10-18T20:02:04.962Z,103203.50
2022-10-18T20:04:34.435Z,103206.81
2022-10-18T20:07:02.655Z,103211.84
2022-10-18T20:09:29.207Z,103207.63
2022-10-18T20:11:55.577Z,103212.75
2022-10-18T20:14:22.014Z,103213.53
2022-10-18T20:16:48.380Z,103223.63
2022-10-18T20:19:14.728Z,103226.97
2022-10-18T20:21:41.093Z,103226.81
2022-10-18T20:24:09.173Z,103229.25
2022-10-18T20:26:35.920Z,103230.84
2022-10-18T20:29:03.012Z,103224.81
2022-10-18T20:31:35.508Z,103223.03
2022-10-18T20:34:04.323Z,103222.91
2022-10-18T20:36:32.305Z,103230.53
2022-10-18T20:38:59.798Z,103226.22
2022-10-18T20:41:35.024Z,103225.31
2022-10-18T20:44:03.693Z,103219.31
2022-10-18T20:46:32.292Z,103221.75
2022-10-18T20:48:58.757Z,103217.44
2022-10-18T20:51:25.651Z,103214.88
2022-10-18T20:53:53.359Z,103212.31
2022-10-18T20:56:22.375Z,103211.22
2022-10-18T20:58:55.433Z,103213.66
2022-10-18T21:01:27.487Z,103206.84
2022-10-18T21:03:55.585Z,103201.72
2022-10-18T21:06:27.785Z,103203.38
2022-10-18T21:09:02.601Z,103205.94
2022-10-18T21:11:30.813Z,103203.28
2022-10-18T21:14:00.010Z,103205.72
2022-10-18T21:16:27.314Z,103208.25
2022-10-18T21:18:53.776Z,103205.66
2022-10-18T21:21:22.971Z,103197.88
2022-10-18T21:23:50.492Z,103207.16
2022-10-18T21:26:18.188Z,103207.00
2022-10-18T21:28:44.836Z,103204.44
2022-10-18T21:31:18.837Z,103206.00
2022-10-18T21:33:46.433Z,103208.38
2022-10-18T21:36:13.956Z,103210.09
2022-10-18T21:38:44.161Z,103205.94
2022-10-18T21:41:11.874Z,103216.97
2022-10-18T21:43:40.978Z,103209.25
2022-10-18T21:46:08.150Z,103216.84
2022-10-18T21:48:34.593Z,103221.88
2022-10-18T21:51:07.788Z,103219.28
2022-10-18T21:53:35.204Z,103218.19
2022-10-18T21:56:10.247Z,103218.06
2022-10-18T21:58:37.473Z,103224.94
2022-10-18T22:01:11.963Z,103213.88
2022-10-18T22:03:38.519Z,103213.81
2022-10-18T22:06:09.490Z,103212.03
2022-10-18T22:08:36.088Z,103203.44
2022-10-18T22:11:03.280Z,103205.00
2022-10-18T22:13:29.739Z,103196.50
2022-10-18T22:15:56.132Z,103204.88
2022-10-18T22:18:22.810Z,103195.50
2022-10-18T22:20:58.470Z,103193.66
2022-10-18T22:23:25.021Z,103207.13
2022-10-18T22:25:51.446Z,103203.78
2022-10-18T22:28:17.845Z,103201.09
2022-10-18T22:30:44.230Z,103202.66
2022-10-18T22:33:10.573Z,103195.00
2022-10-18T22:35:36.889Z,103187.28
2022-10-18T22:38:03.410Z,103198.19
2022-10-18T22:40:29.738Z,103190.28
2022-10-18T22:42:56.085Z,103190.19
2022-10-18T22:45:22.410Z,103194.31
2022-10-18T22:47:48.917Z,103194.28
2022-10-18T22:50:15.312Z,103195.88
2022-10-18T22:52:41.648Z,103192.47
2022-10-18T22:55:08.103Z,103189.81
2022-10-18T22:57:34.765Z,103188.13
2022-10-18T23:00:01.097Z,103186.34
2022-10-18T23:02:27.466Z,103187.13
2022-10-18T23:04:53.824Z,103184.56
2022-10-18T23:07:20.166Z,103187.19
2022-10-18T23:09:46.786Z,103185.59
2022-10-18T23:12:13.141Z,103189.00
2022-10-18T23:14:39.505Z,103193.28
2022-10-18T23:17:05.864Z,103189.09
2022-10-18T23:19:32.268Z,103183.25
2022-10-18T23:21:58.598Z,103185.72
2022-10-18T23:24:24.941Z,103176.25
2022-10-18T23:26:51.460Z,103176.81
2022-10-18T23:29:17.873Z,103182.56
2022-10-18T23:31:44.229Z,103186.81
2022-10-18T23:34:10.702Z,103184.91
2022-10-18T23:36:37.107Z,103186.56
2022-10-18T23:39:04.141Z,103190.94
2022-10-18T23:41:30.652Z,103192.53
2022-10-18T23:43:57.041Z,103194.88
2022-10-18T23:46:23.949Z,103202.34
2022-10-18T23:48:50.581Z,103198.09
2022-10-18T23:51:17.798Z,103201.53
2022-10-18T23:53:44.322Z,103195.38
2022-10-18T23:56:13.692Z,103199.47
2022-10-18T23:58:40.781Z,103197.63
